Portada
METAR-TAF:

METAR-TAF

Aeropuertos :

Agen, Francia

latitud: 44-11N, longitud: 000-36E, altitud: 61 m

Observación

El informe se hizo hace 27 minutos, a las 09:00 UTC
Viento 6 kt del este-sureste
Temperatura 7°C
Humedad 93%
Presión 1024 hPa
Visibilidad: 1800 m

METAR: LFBA 240900Z AUTO 12006KT 6000 1800 NSC 07/06 Q1024 NOSIG

Hora: 11:27 (09:27 UTC)

Pronóstico

El informe se hizo hace 1 hora y 27 minutos, a las 08:00 UTC
Pronóstico válido del 24 a las 09 UTC al 24 a las 18 UTC
Viento 3 kt del este-sureste
Visibilidad 10 km o más
sin nubes por debajo de 1500 m y sin presencia de cumulonimbus.
Probabilidad 30% :
Temporalmente
del 24 a las 12 UTC al 24 a las 16 UTC
Viento 13 kt del este-sureste

TAF: LFBA 240800Z 2409/2418 12003KT CAVOK PROB30 TEMPO 2412/2416 12013KT

Observaciones y pronósticos meteorológicos de más de 4000 aeropuertos (mensajes METAR y TAF).

Los puntos amarillos y rojos representan las estaciones disponibles.

Ponga el ratón en el punto deseado para ver el nombre de la estación.

Haga clic para ver las observaciones y los pronósticos meteorológicos.

Para cambiar el mapa : haga clic en los botones verdes con una cruz de color negro para hacer un zoom, en el botón verde con un guión para alejar o en las flechas verdes para mapas adyacentes.


METAR-TAF: